sensor_id;sensor_type;location;lat;lon;timestamp;P1;durP1;ratioP1;P2;durP2;ratioP2
73779;SDS011;62093;37.614;15.072;2023-06-14T00:02:09;5.45;;;3.08;;
73779;SDS011;62093;37.614;15.072;2023-06-14T00:04:35;5.00;;;2.80;;
73779;SDS011;62093;37.614;15.072;2023-06-14T00:07:01;5.65;;;3.08;;
73779;SDS011;62093;37.614;15.072;2023-06-14T00:09:27;5.23;;;3.00;;
73779;SDS011;62093;37.614;15.072;2023-06-14T00:11:53;5.93;;;3.97;;
73779;SDS011;62093;37.614;15.072;2023-06-14T00:14:19;5.63;;;3.00;;
73779;SDS011;62093;37.614;15.072;2023-06-14T00:16:45;5.10;;;3.20;;
73779;SDS011;62093;37.614;15.072;2023-06-14T00:19:11;7.00;;;3.47;;
73779;SDS011;62093;37.614;15.072;2023-06-14T00:21:37;5.55;;;3.28;;
73779;SDS011;62093;37.614;15.072;2023-06-14T00:24:03;5.13;;;2.90;;
73779;SDS011;62093;37.614;15.072;2023-06-14T00:26:30;5.83;;;3.20;;
73779;SDS011;62093;37.614;15.072;2023-06-14T00:28:56;5.43;;;2.80;;
73779;SDS011;62093;37.614;15.072;2023-06-14T00:31:22;6.00;;;3.22;;
73779;SDS011;62093;37.614;15.072;2023-06-14T00:33:48;6.20;;;3.33;;
73779;SDS011;62093;37.614;15.072;2023-06-14T00:36:14;5.67;;;2.90;;
73779;SDS011;62093;37.614;15.072;2023-06-14T00:38:41;4.95;;;2.90;;
73779;SDS011;62093;37.614;15.072;2023-06-14T00:41:08;5.72;;;2.90;;
73779;SDS011;62093;37.614;15.072;2023-06-14T00:43:33;5.30;;;3.20;;
73779;SDS011;62093;37.614;15.072;2023-06-14T00:46:00;5.78;;;3.30;;
73779;SDS011;62093;37.614;15.072;2023-06-14T00:48:26;5.45;;;2.90;;
73779;SDS011;62093;37.614;15.072;2023-06-14T00:50:53;5.32;;;3.05;;
73779;SDS011;62093;37.614;15.072;2023-06-14T00:53:20;5.22;;;3.20;;
73779;SDS011;62093;37.614;15.072;2023-06-14T00:55:48;5.27;;;2.77;;
73779;SDS011;62093;37.614;15.072;2023-06-14T00:58:15;5.20;;;3.10;;
73779;SDS011;62093;37.614;15.072;2023-06-14T01:00:42;5.15;;;3.03;;
73779;SDS011;62093;37.614;15.072;2023-06-14T01:03:08;5.95;;;3.03;;
73779;SDS011;62093;37.614;15.072;2023-06-14T01:05:38;5.13;;;2.78;;
73779;SDS011;62093;37.614;15.072;2023-06-14T01:13:38;5.50;;;3.30;;
73779;SDS011;62093;37.614;15.072;2023-06-14T01:16:06;5.07;;;2.65;;
73779;SDS011;62093;37.614;15.072;2023-06-14T01:18:33;6.10;;;3.40;;
73779;SDS011;62093;37.614;15.072;2023-06-14T01:21:01;5.63;;;2.90;;
73779;SDS011;62093;37.614;15.072;2023-06-14T01:23:31;4.68;;;3.00;;
73779;SDS011;62093;37.614;15.072;2023-06-14T01:25:58;6.47;;;3.58;;
73779;SDS011;62093;37.614;15.072;2023-06-14T01:28:25;6.30;;;3.47;;
73779;SDS011;62093;37.614;15.072;2023-06-14T01:30:58;5.05;;;3.05;;
73779;SDS011;62093;37.614;15.072;2023-06-14T01:33:29;5.67;;;2.93;;
73779;SDS011;62093;37.614;15.072;2023-06-14T01:35:57;5.18;;;3.00;;
73779;SDS011;62093;37.614;15.072;2023-06-14T01:38:24;5.75;;;3.22;;
73779;SDS011;62093;37.614;15.072;2023-06-14T01:40:51;5.72;;;3.60;;
73779;SDS011;62093;37.614;15.072;2023-06-14T01:43:19;5.18;;;3.10;;
73779;SDS011;62093;37.614;15.072;2023-06-14T01:45:47;5.13;;;2.93;;
73779;SDS011;62093;37.614;15.072;2023-06-14T01:48:17;5.80;;;3.53;;
73779;SDS011;62093;37.614;15.072;2023-06-14T01:50:45;4.85;;;2.70;;
73779;SDS011;62093;37.614;15.072;2023-06-14T01:53:10;5.10;;;2.80;;
73779;SDS011;62093;37.614;15.072;2023-06-14T01:55:36;5.67;;;3.33;;
73779;SDS011;62093;37.614;15.072;2023-06-14T01:58:05;5.28;;;2.90;;
73779;SDS011;62093;37.614;15.072;2023-06-14T02:00:32;4.90;;;2.85;;
73779;SDS011;62093;37.614;15.072;2023-06-14T02:02:58;5.03;;;2.88;;
73779;SDS011;62093;37.614;15.072;2023-06-14T02:05:25;4.70;;;2.43;;
73779;SDS011;62093;37.614;15.072;2023-06-14T02:07:52;5.70;;;3.20;;
73779;SDS011;62093;37.614;15.072;2023-06-14T02:10:18;5.40;;;3.10;;
73779;SDS011;62093;37.614;15.072;2023-06-14T02:12:46;5.18;;;3.00;;
73779;SDS011;62093;37.614;15.072;2023-06-14T02:15:12;5.47;;;3.10;;
73779;SDS011;62093;37.614;15.072;2023-06-14T02:17:45;4.80;;;2.73;;
73779;SDS011;62093;37.614;15.072;2023-06-14T02:20:16;4.43;;;2.42;;
73779;SDS011;62093;37.614;15.072;2023-06-14T02:22:42;5.43;;;2.92;;
73779;SDS011;62093;37.614;15.072;2023-06-14T02:25:08;5.80;;;3.05;;
73779;SDS011;62093;37.614;15.072;2023-06-14T02:27:34;5.73;;;3.00;;
73779;SDS011;62093;37.614;15.072;2023-06-14T02:30:03;5.63;;;2.88;;
73779;SDS011;62093;37.614;15.072;2023-06-14T02:32:31;5.45;;;3.17;;
73779;SDS011;62093;37.614;15.072;2023-06-14T02:34:59;5.40;;;3.00;;
73779;SDS011;62093;37.614;15.072;2023-06-14T02:37:25;5.10;;;2.97;;
73779;SDS011;62093;37.614;15.072;2023-06-14T02:39:52;5.43;;;3.30;;
73779;SDS011;62093;37.614;15.072;2023-06-14T02:42:18;5.50;;;3.10;;
73779;SDS011;62093;37.614;15.072;2023-06-14T02:44:44;4.93;;;3.03;;
73779;SDS011;62093;37.614;15.072;2023-06-14T02:47:11;5.18;;;2.65;;
73779;SDS011;62093;37.614;15.072;2023-06-14T02:49:37;4.93;;;3.00;;
73779;SDS011;62093;37.614;15.072;2023-06-14T02:52:03;5.00;;;2.60;;
73779;SDS011;62093;37.614;15.072;2023-06-14T02:54:30;5.40;;;3.00;;
73779;SDS011;62093;37.614;15.072;2023-06-14T02:56:58;5.63;;;3.20;;
73779;SDS011;62093;37.614;15.072;2023-06-14T02:59:23;5.68;;;2.80;;
73779;SDS011;62093;37.614;15.072;2023-06-14T03:01:52;6.03;;;2.93;;
73779;SDS011;62093;37.614;15.072;2023-06-14T03:04:19;5.22;;;2.92;;
73779;SDS011;62093;37.614;15.072;2023-06-14T03:06:45;5.00;;;3.00;;
73779;SDS011;62093;37.614;15.072;2023-06-14T03:09:17;5.35;;;3.08;;
73779;SDS011;62093;37.614;15.072;2023-06-14T03:11:45;5.13;;;3.08;;
73779;SDS011;62093;37.614;15.072;2023-06-14T03:14:11;5.73;;;3.27;;
73779;SDS011;62093;37.614;15.072;2023-06-14T03:16:38;5.20;;;3.03;;
73779;SDS011;62093;37.614;15.072;2023-06-14T03:19:08;5.13;;;2.95;;
73779;SDS011;62093;37.614;15.072;2023-06-14T03:21:34;4.68;;;2.47;;
73779;SDS011;62093;37.614;15.072;2023-06-14T03:24:02;5.18;;;2.80;;
73779;SDS011;62093;37.614;15.072;2023-06-14T03:26:29;5.07;;;2.93;;
73779;SDS011;62093;37.614;15.072;2023-06-14T03:28:57;5.03;;;2.80;;
73779;SDS011;62093;37.614;15.072;2023-06-14T03:31:23;5.63;;;3.00;;
73779;SDS011;62093;37.614;15.072;2023-06-14T03:33:50;5.60;;;3.10;;
73779;SDS011;62093;37.614;15.072;2023-06-14T03:36:17;5.35;;;2.90;;
73779;SDS011;62093;37.614;15.072;2023-06-14T03:38:44;5.10;;;2.73;;
73779;SDS011;62093;37.614;15.072;2023-06-14T03:41:11;5.45;;;2.83;;
73779;SDS011;62093;37.614;15.072;2023-06-14T03:43:37;5.50;;;3.22;;
73779;SDS011;62093;37.614;15.072;2023-06-14T03:46:03;4.75;;;2.70;;
73779;SDS011;62093;37.614;15.072;2023-06-14T03:48:31;5.28;;;3.05;;
73779;SDS011;62093;37.614;15.072;2023-06-14T03:50:57;5.80;;;2.97;;
73779;SDS011;62093;37.614;15.072;2023-06-14T03:53:23;5.38;;;3.08;;
73779;SDS011;62093;37.614;15.072;2023-06-14T03:55:50;5.47;;;3.05;;
73779;SDS011;62093;37.614;15.072;2023-06-14T03:58:20;5.05;;;2.88;;
73779;SDS011;62093;37.614;15.072;2023-06-14T04:00:46;5.00;;;2.73;;
73779;SDS011;62093;37.614;15.072;2023-06-14T04:03:12;5.20;;;2.80;;
73779;SDS011;62093;37.614;15.072;2023-06-14T04:05:41;5.50;;;2.60;;
73779;SDS011;62093;37.614;15.072;2023-06-14T04:08:08;5.88;;;3.20;;
73779;SDS011;62093;37.614;15.072;2023-06-14T04:10:36;4.90;;;2.80;;
73779;SDS011;62093;37.614;15.072;2023-06-14T04:13:02;5.23;;;3.10;;
73779;SDS011;62093;37.614;15.072;2023-06-14T04:15:29;5.32;;;3.10;;
73779;SDS011;62093;37.614;15.072;2023-06-14T04:17:56;5.35;;;3.00;;
73779;SDS011;62093;37.614;15.072;2023-06-14T04:20:23;4.95;;;3.00;;
73779;SDS011;62093;37.614;15.072;2023-06-14T04:22:52;5.03;;;2.65;;
73779;SDS011;62093;37.614;15.072;2023-06-14T04:25:19;5.47;;;2.83;;
73779;SDS011;62093;37.614;15.072;2023-06-14T04:27:46;5.00;;;2.78;;
73779;SDS011;62093;37.614;15.072;2023-06-14T04:30:13;5.75;;;3.28;;
73779;SDS011;62093;37.614;15.072;2023-06-14T04:32:45;5.00;;;2.90;;
73779;SDS011;62093;37.614;15.072;2023-06-14T04:35:12;6.43;;;3.33;;
73779;SDS011;62093;37.614;15.072;2023-06-14T04:37:42;5.10;;;2.93;;
73779;SDS011;62093;37.614;15.072;2023-06-14T04:40:09;4.97;;;2.90;;
73779;SDS011;62093;37.614;15.072;2023-06-14T04:42:37;4.70;;;2.83;;
73779;SDS011;62093;37.614;15.072;2023-06-14T04:45:06;4.70;;;2.55;;
73779;SDS011;62093;37.614;15.072;2023-06-14T04:47:33;4.90;;;2.67;;
73779;SDS011;62093;37.614;15.072;2023-06-14T04:50:00;5.00;;;2.93;;
73779;SDS011;62093;37.614;15.072;2023-06-14T04:52:29;5.35;;;3.00;;
73779;SDS011;62093;37.614;15.072;2023-06-14T04:54:56;5.07;;;3.13;;
73779;SDS011;62093;37.614;15.072;2023-06-14T04:57:22;5.03;;;2.83;;
73779;SDS011;62093;37.614;15.072;2023-06-14T04:59:52;4.90;;;2.92;;
73779;SDS011;62093;37.614;15.072;2023-06-14T05:02:24;4.80;;;2.80;;
73779;SDS011;62093;37.614;15.072;2023-06-14T05:04:52;4.95;;;2.90;;
73779;SDS011;62093;37.614;15.072;2023-06-14T05:07:18;5.50;;;2.65;;
73779;SDS011;62093;37.614;15.072;2023-06-14T05:09:47;5.75;;;3.15;;
73779;SDS011;62093;37.614;15.072;2023-06-14T05:12:13;5.13;;;2.70;;
73779;SDS011;62093;37.614;15.072;2023-06-14T05:14:39;5.25;;;2.85;;
73779;SDS011;62093;37.614;15.072;2023-06-14T05:17:06;5.13;;;2.72;;
73779;SDS011;62093;37.614;15.072;2023-06-14T05:19:31;4.63;;;2.60;;
73779;SDS011;62093;37.614;15.072;2023-06-14T05:21:57;5.07;;;2.73;;
73779;SDS011;62093;37.614;15.072;2023-06-14T05:24:23;5.20;;;2.97;;
73779;SDS011;62093;37.614;15.072;2023-06-14T05:26:49;5.03;;;3.00;;
73779;SDS011;62093;37.614;15.072;2023-06-14T05:29:15;5.10;;;2.72;;
73779;SDS011;62093;37.614;15.072;2023-06-14T05:31:40;6.03;;;3.05;;
73779;SDS011;62093;37.614;15.072;2023-06-14T05:34:06;4.80;;;2.83;;
73779;SDS011;62093;37.614;15.072;2023-06-14T05:36:32;4.93;;;2.72;;
73779;SDS011;62093;37.614;15.072;2023-06-14T05:38:58;4.60;;;2.47;;
73779;SDS011;62093;37.614;15.072;2023-06-14T05:41:28;4.63;;;2.40;;
73779;SDS011;62093;37.614;15.072;2023-06-14T05:43:55;4.88;;;2.78;;
73779;SDS011;62093;37.614;15.072;2023-06-14T05:46:21;4.93;;;2.80;;
73779;SDS011;62093;37.614;15.072;2023-06-14T05:48:51;4.65;;;2.78;;
73779;SDS011;62093;37.614;15.072;2023-06-14T05:51:17;5.70;;;2.80;;
73779;SDS011;62093;37.614;15.072;2023-06-14T05:53:46;4.83;;;2.93;;
73779;SDS011;62093;37.614;15.072;2023-06-14T05:56:13;4.95;;;2.65;;
73779;SDS011;62093;37.614;15.072;2023-06-14T05:58:39;4.90;;;2.58;;
73779;SDS011;62093;37.614;15.072;2023-06-14T06:01:05;5.20;;;2.92;;
73779;SDS011;62093;37.614;15.072;2023-06-14T06:03:31;4.93;;;2.63;;
73779;SDS011;62093;37.614;15.072;2023-06-14T06:05:58;5.00;;;2.80;;
73779;SDS011;62093;37.614;15.072;2023-06-14T06:08:24;5.10;;;2.55;;
73779;SDS011;62093;37.614;15.072;2023-06-14T06:10:50;4.90;;;2.70;;
73779;SDS011;62093;37.614;15.072;2023-06-14T06:13:16;4.80;;;2.60;;
73779;SDS011;62093;37.614;15.072;2023-06-14T06:15:41;5.00;;;2.57;;
73779;SDS011;62093;37.614;15.072;2023-06-14T06:18:07;5.78;;;3.10;;
73779;SDS011;62093;37.614;15.072;2023-06-14T06:20:33;5.23;;;2.60;;
73779;SDS011;62093;37.614;15.072;2023-06-14T06:22:59;5.90;;;3.13;;
73779;SDS011;62093;37.614;15.072;2023-06-14T06:25:26;5.00;;;2.80;;
73779;SDS011;62093;37.614;15.072;2023-06-14T06:27:53;4.75;;;2.38;;
73779;SDS011;62093;37.614;15.072;2023-06-14T06:30:21;5.00;;;2.95;;
73779;SDS011;62093;37.614;15.072;2023-06-14T06:32:48;4.93;;;2.63;;
73779;SDS011;62093;37.614;15.072;2023-06-14T06:35:13;4.93;;;2.70;;
73779;SDS011;62093;37.614;15.072;2023-06-14T06:37:40;5.20;;;2.70;;
73779;SDS011;62093;37.614;15.072;2023-06-14T06:40:07;4.93;;;2.67;;
73779;SDS011;62093;37.614;15.072;2023-06-14T06:42:34;5.43;;;2.75;;
73779;SDS011;62093;37.614;15.072;2023-06-14T06:45:03;4.97;;;2.85;;
73779;SDS011;62093;37.614;15.072;2023-06-14T06:47:29;5.07;;;2.42;;
73779;SDS011;62093;37.614;15.072;2023-06-14T06:49:55;4.50;;;2.15;;
73779;SDS011;62093;37.614;15.072;2023-06-14T06:52:21;5.90;;;2.73;;
73779;SDS011;62093;37.614;15.072;2023-06-14T06:54:47;5.30;;;2.95;;
73779;SDS011;62093;37.614;15.072;2023-06-14T06:57:12;4.80;;;2.70;;
73779;SDS011;62093;37.614;15.072;2023-06-14T06:59:39;4.70;;;2.77;;
73779;SDS011;62093;37.614;15.072;2023-06-14T07:02:05;5.28;;;3.05;;
73779;SDS011;62093;37.614;15.072;2023-06-14T07:04:31;4.78;;;2.50;;
73779;SDS011;62093;37.614;15.072;2023-06-14T07:06:57;5.10;;;2.90;;
73779;SDS011;62093;37.614;15.072;2023-06-14T07:09:23;4.90;;;2.63;;
73779;SDS011;62093;37.614;15.072;2023-06-14T07:11:49;4.97;;;2.60;;
73779;SDS011;62093;37.614;15.072;2023-06-14T07:14:15;4.80;;;2.63;;
73779;SDS011;62093;37.614;15.072;2023-06-14T07:16:41;5.80;;;2.73;;
73779;SDS011;62093;37.614;15.072;2023-06-14T07:19:08;5.10;;;2.85;;
73779;SDS011;62093;37.614;15.072;2023-06-14T07:21:35;5.15;;;2.78;;
73779;SDS011;62093;37.614;15.072;2023-06-14T07:24:04;5.10;;;3.10;;
73779;SDS011;62093;37.614;15.072;2023-06-14T07:26:31;5.28;;;3.03;;
73779;SDS011;62093;37.614;15.072;2023-06-14T07:28:57;4.60;;;2.60;;
73779;SDS011;62093;37.614;15.072;2023-06-14T07:31:23;5.20;;;2.90;;
73779;SDS011;62093;37.614;15.072;2023-06-14T07:33:49;4.77;;;2.50;;
73779;SDS011;62093;37.614;15.072;2023-06-14T07:36:15;4.97;;;3.00;;
73779;SDS011;62093;37.614;15.072;2023-06-14T07:38:40;4.97;;;2.78;;
73779;SDS011;62093;37.614;15.072;2023-06-14T07:41:06;5.20;;;2.80;;
73779;SDS011;62093;37.614;15.072;2023-06-14T07:43:32;5.88;;;2.55;;
73779;SDS011;62093;37.614;15.072;2023-06-14T07:45:58;5.50;;;3.23;;
73779;SDS011;62093;37.614;15.072;2023-06-14T07:48:24;6.37;;;3.00;;
73779;SDS011;62093;37.614;15.072;2023-06-14T07:50:50;5.13;;;3.30;;
73779;SDS011;62093;37.614;15.072;2023-06-14T07:53:15;5.17;;;2.77;;
73779;SDS011;62093;37.614;15.072;2023-06-14T07:55:41;5.10;;;2.85;;
73779;SDS011;62093;37.614;15.072;2023-06-14T07:58:08;5.45;;;3.15;;
73779;SDS011;62093;37.614;15.072;2023-06-14T08:00:34;5.43;;;2.72;;
73779;SDS011;62093;37.614;15.072;2023-06-14T08:03:00;5.93;;;3.07;;
73779;SDS011;62093;37.614;15.072;2023-06-14T08:05:26;5.07;;;2.72;;
73779;SDS011;62093;37.614;15.072;2023-06-14T08:07:53;5.85;;;2.80;;
73779;SDS011;62093;37.614;15.072;2023-06-14T08:10:19;4.90;;;2.63;;
73779;SDS011;62093;37.614;15.072;2023-06-14T08:12:45;4.90;;;2.80;;
73779;SDS011;62093;37.614;15.072;2023-06-14T08:15:11;6.10;;;3.53;;
73779;SDS011;62093;37.614;15.072;2023-06-14T08:17:37;5.80;;;3.00;;
73779;SDS011;62093;37.614;15.072;2023-06-14T08:20:03;5.00;;;2.87;;
73779;SDS011;62093;37.614;15.072;2023-06-14T08:22:31;5.30;;;3.05;;
73779;SDS011;62093;37.614;15.072;2023-06-14T08:24:59;5.50;;;3.10;;
73779;SDS011;62093;37.614;15.072;2023-06-14T08:27:26;5.20;;;3.15;;
73779;SDS011;62093;37.614;15.072;2023-06-14T08:29:52;5.35;;;2.85;;
73779;SDS011;62093;37.614;15.072;2023-06-14T08:32:18;5.57;;;2.77;;
73779;SDS011;62093;37.614;15.072;2023-06-14T08:34:44;5.32;;;2.95;;
73779;SDS011;62093;37.614;15.072;2023-06-14T08:37:10;5.78;;;3.20;;
73779;SDS011;62093;37.614;15.072;2023-06-14T08:39:35;5.60;;;3.30;;
73779;SDS011;62093;37.614;15.072;2023-06-14T08:42:02;4.95;;;2.97;;
73779;SDS011;62093;37.614;15.072;2023-06-14T08:44:29;4.95;;;2.80;;
73779;SDS011;62093;37.614;15.072;2023-06-14T08:46:56;5.03;;;2.63;;
73779;SDS011;62093;37.614;15.072;2023-06-14T08:49:24;5.32;;;2.90;;
73779;SDS011;62093;37.614;15.072;2023-06-14T08:51:52;5.40;;;2.90;;
73779;SDS011;62093;37.614;15.072;2023-06-14T08:54:25;5.57;;;3.42;;
73779;SDS011;62093;37.614;15.072;2023-06-14T08:56:53;6.22;;;3.10;;
73779;SDS011;62093;37.614;15.072;2023-06-14T08:59:25;5.13;;;3.28;;
73779;SDS011;62093;37.614;15.072;2023-06-14T09:01:52;6.25;;;3.00;;
73779;SDS011;62093;37.614;15.072;2023-06-14T09:04:22;4.93;;;3.07;;
73779;SDS011;62093;37.614;15.072;2023-06-14T09:06:50;5.70;;;3.13;;
73779;SDS011;62093;37.614;15.072;2023-06-14T09:09:21;6.03;;;3.50;;
73779;SDS011;62093;37.614;15.072;2023-06-14T09:11:51;5.70;;;3.05;;
73779;SDS011;62093;37.614;15.072;2023-06-14T09:14:18;6.22;;;3.45;;
73779;SDS011;62093;37.614;15.072;2023-06-14T09:16:44;4.70;;;2.50;;
73779;SDS011;62093;37.614;15.072;2023-06-14T09:19:13;5.68;;;3.40;;
73779;SDS011;62093;37.614;15.072;2023-06-14T09:21:47;5.60;;;3.30;;
73779;SDS011;62093;37.614;15.072;2023-06-14T09:24:13;5.50;;;3.17;;
73779;SDS011;62093;37.614;15.072;2023-06-14T09:26:39;5.80;;;3.20;;
73779;SDS011;62093;37.614;15.072;2023-06-14T09:29:06;5.65;;;3.05;;
73779;SDS011;62093;37.614;15.072;2023-06-14T09:31:32;6.05;;;3.13;;
73779;SDS011;62093;37.614;15.072;2023-06-14T09:33:58;4.80;;;2.72;;
73779;SDS011;62093;37.614;15.072;2023-06-14T09:36:27;5.22;;;3.13;;
73779;SDS011;62093;37.614;15.072;2023-06-14T09:38:57;5.03;;;3.10;;
73779;SDS011;62093;37.614;15.072;2023-06-14T09:41:41;5.60;;;3.58;;
73779;SDS011;62093;37.614;15.072;2023-06-14T09:44:08;5.13;;;2.80;;
73779;SDS011;62093;37.614;15.072;2023-06-14T09:46:35;5.97;;;2.92;;
73779;SDS011;62093;37.614;15.072;2023-06-14T09:49:03;5.05;;;2.92;;
73779;SDS011;62093;37.614;15.072;2023-06-14T09:51:29;5.93;;;3.20;;
73779;SDS011;62093;37.614;15.072;2023-06-14T09:53:59;6.50;;;3.50;;
73779;SDS011;62093;37.614;15.072;2023-06-14T09:56:27;5.63;;;3.17;;
73779;SDS011;62093;37.614;15.072;2023-06-14T09:58:57;6.03;;;3.35;;
73779;SDS011;62093;37.614;15.072;2023-06-14T10:01:25;5.65;;;2.85;;
73779;SDS011;62093;37.614;15.072;2023-06-14T10:03:55;5.47;;;3.37;;
73779;SDS011;62093;37.614;15.072;2023-06-14T10:06:31;5.07;;;3.20;;
73779;SDS011;62093;37.614;15.072;2023-06-14T10:08:58;5.85;;;3.15;;
73779;SDS011;62093;37.614;15.072;2023-06-14T10:11:25;6.72;;;3.50;;
73779;SDS011;62093;37.614;15.072;2023-06-14T10:13:53;8.48;;;3.47;;
73779;SDS011;62093;37.614;15.072;2023-06-14T10:24:41;5.97;;;3.22;;
73779;SDS011;62093;37.614;15.072;2023-06-14T10:27:08;6.53;;;3.25;;
73779;SDS011;62093;37.614;15.072;2023-06-14T10:30:21;6.30;;;3.60;;
73779;SDS011;62093;37.614;15.072;2023-06-14T10:32:28;6.97;;;3.17;;
73779;SDS011;62093;37.614;15.072;2023-06-14T10:34:57;5.30;;;3.30;;
73779;SDS011;62093;37.614;15.072;2023-06-14T10:37:25;7.25;;;3.58;;
73779;SDS011;62093;37.614;15.072;2023-06-14T10:39:53;5.75;;;3.20;;
73779;SDS011;62093;37.614;15.072;2023-06-14T10:42:19;7.10;;;3.33;;
73779;SDS011;62093;37.614;15.072;2023-06-14T10:44:45;6.78;;;3.33;;
73779;SDS011;62093;37.614;15.072;2023-06-14T10:47:24;5.75;;;3.10;;
73779;SDS011;62093;37.614;15.072;2023-06-14T10:52:25;6.38;;;3.45;;
73779;SDS011;62093;37.614;15.072;2023-06-14T10:54:59;6.93;;;3.67;;
73779;SDS011;62093;37.614;15.072;2023-06-14T10:57:41;7.32;;;3.88;;
73779;SDS011;62093;37.614;15.072;2023-06-14T11:00:11;5.90;;;3.40;;
73779;SDS011;62093;37.614;15.072;2023-06-14T11:05:28;6.80;;;3.28;;
73779;SDS011;62093;37.614;15.072;2023-06-14T11:10:40;5.70;;;3.35;;
73779;SDS011;62093;37.614;15.072;2023-06-14T11:13:07;5.60;;;3.22;;
73779;SDS011;62093;37.614;15.072;2023-06-14T11:15:34;6.18;;;3.05;;
73779;SDS011;62093;37.614;15.072;2023-06-14T11:18:07;6.35;;;3.60;;
73779;SDS011;62093;37.614;15.072;2023-06-14T11:20:35;8.23;;;3.60;;
73779;SDS011;62093;37.614;15.072;2023-06-14T11:23:02;6.63;;;3.58;;
73779;SDS011;62093;37.614;15.072;2023-06-14T11:25:28;5.80;;;3.30;;
73779;SDS011;62093;37.614;15.072;2023-06-14T11:27:55;5.88;;;3.53;;
73779;SDS011;62093;37.614;15.072;2023-06-14T11:30:22;5.72;;;3.40;;
73779;SDS011;62093;37.614;15.072;2023-06-14T11:32:48;6.63;;;3.43;;
73779;SDS011;62093;37.614;15.072;2023-06-14T11:35:16;7.45;;;3.53;;
73779;SDS011;62093;37.614;15.072;2023-06-14T11:37:43;5.60;;;3.22;;
73779;SDS011;62093;37.614;15.072;2023-06-14T11:40:10;7.22;;;3.42;;
73779;SDS011;62093;37.614;15.072;2023-06-14T11:42:38;6.25;;;3.53;;
73779;SDS011;62093;37.614;15.072;2023-06-14T11:45:09;6.93;;;3.70;;
73779;SDS011;62093;37.614;15.072;2023-06-14T11:47:37;6.00;;;3.53;;
73779;SDS011;62093;37.614;15.072;2023-06-14T11:50:05;6.35;;;3.70;;
73779;SDS011;62093;37.614;15.072;2023-06-14T11:52:33;6.13;;;3.53;;
73779;SDS011;62093;37.614;15.072;2023-06-14T11:55:00;6.35;;;3.40;;
73779;SDS011;62093;37.614;15.072;2023-06-14T11:57:28;5.77;;;3.40;;
73779;SDS011;62093;37.614;15.072;2023-06-14T11:59:54;6.13;;;3.28;;
73779;SDS011;62093;37.614;15.072;2023-06-14T12:02:21;7.15;;;3.50;;
73779;SDS011;62093;37.614;15.072;2023-06-14T12:04:47;7.07;;;3.97;;
73779;SDS011;62093;37.614;15.072;2023-06-14T12:07:14;8.43;;;3.67;;
73779;SDS011;62093;37.614;15.072;2023-06-14T12:09:41;6.20;;;3.88;;
73779;SDS011;62093;37.614;15.072;2023-06-14T12:12:09;6.75;;;3.30;;
73779;SDS011;62093;37.614;15.072;2023-06-14T12:14:37;6.53;;;3.45;;
73779;SDS011;62093;37.614;15.072;2023-06-14T12:17:06;6.47;;;3.50;;
73779;SDS011;62093;37.614;15.072;2023-06-14T12:19:33;5.83;;;3.90;;
73779;SDS011;62093;37.614;15.072;2023-06-14T12:22:06;6.95;;;3.70;;
73779;SDS011;62093;37.614;15.072;2023-06-14T12:24:35;5.70;;;3.65;;
73779;SDS011;62093;37.614;15.072;2023-06-14T12:27:01;6.80;;;3.37;;
73779;SDS011;62093;37.614;15.072;2023-06-14T12:29:30;7.47;;;3.70;;
73779;SDS011;62093;37.614;15.072;2023-06-14T12:31:56;6.78;;;3.53;;
73779;SDS011;62093;37.614;15.072;2023-06-14T12:34:25;5.35;;;2.88;;
73779;SDS011;62093;37.614;15.072;2023-06-14T12:36:52;5.97;;;3.20;;
73779;SDS011;62093;37.614;15.072;2023-06-14T12:39:19;6.67;;;4.17;;
73779;SDS011;62093;37.614;15.072;2023-06-14T12:41:46;5.90;;;3.45;;
73779;SDS011;62093;37.614;15.072;2023-06-14T12:44:12;5.82;;;3.75;;
73779;SDS011;62093;37.614;15.072;2023-06-14T12:46:39;5.88;;;3.33;;
73779;SDS011;62093;37.614;15.072;2023-06-14T12:49:05;6.85;;;4.05;;
73779;SDS011;62093;37.614;15.072;2023-06-14T12:51:33;6.13;;;3.70;;
73779;SDS011;62093;37.614;15.072;2023-06-14T12:53:58;5.95;;;3.50;;
73779;SDS011;62093;37.614;15.072;2023-06-14T12:56:24;6.33;;;3.80;;
73779;SDS011;62093;37.614;15.072;2023-06-14T12:58:51;6.65;;;3.78;;
73779;SDS011;62093;37.614;15.072;2023-06-14T13:01:18;6.07;;;3.72;;
73779;SDS011;62093;37.614;15.072;2023-06-14T13:03:45;7.10;;;3.60;;
73779;SDS011;62093;37.614;15.072;2023-06-14T13:06:11;7.90;;;3.95;;
73779;SDS011;62093;37.614;15.072;2023-06-14T13:08:37;6.37;;;3.40;;
73779;SDS011;62093;37.614;15.072;2023-06-14T13:11:03;6.43;;;3.78;;
73779;SDS011;62093;37.614;15.072;2023-06-14T13:13:29;6.03;;;3.80;;
73779;SDS011;62093;37.614;15.072;2023-06-14T13:15:54;5.78;;;3.35;;
73779;SDS011;62093;37.614;15.072;2023-06-14T13:18:20;5.90;;;3.47;;
73779;SDS011;62093;37.614;15.072;2023-06-14T13:20:46;6.50;;;3.50;;
73779;SDS011;62093;37.614;15.072;2023-06-14T13:23:12;6.38;;;3.80;;
73779;SDS011;62093;37.614;15.072;2023-06-14T13:25:39;6.35;;;3.70;;
73779;SDS011;62093;37.614;15.072;2023-06-14T13:28:05;6.43;;;3.37;;
73779;SDS011;62093;37.614;15.072;2023-06-14T13:30:31;5.57;;;3.30;;
73779;SDS011;62093;37.614;15.072;2023-06-14T13:32:59;6.00;;;3.67;;
73779;SDS011;62093;37.614;15.072;2023-06-14T13:35:25;5.93;;;3.60;;
73779;SDS011;62093;37.614;15.072;2023-06-14T13:37:51;6.20;;;3.70;;
73779;SDS011;62093;37.614;15.072;2023-06-14T13:40:18;6.30;;;3.93;;
73779;SDS011;62093;37.614;15.072;2023-06-14T13:42:45;6.88;;;3.83;;
73779;SDS011;62093;37.614;15.072;2023-06-14T13:45:13;6.13;;;3.47;;
73779;SDS011;62093;37.614;15.072;2023-06-14T13:47:39;6.15;;;3.85;;
73779;SDS011;62093;37.614;15.072;2023-06-14T13:50:05;6.23;;;3.63;;
73779;SDS011;62093;37.614;15.072;2023-06-14T13:52:31;5.95;;;3.20;;
73779;SDS011;62093;37.614;15.072;2023-06-14T13:54:57;6.68;;;3.92;;
73779;SDS011;62093;37.614;15.072;2023-06-14T13:57:22;7.13;;;3.37;;
73779;SDS011;62093;37.614;15.072;2023-06-14T13:59:48;6.80;;;3.80;;
73779;SDS011;62093;37.614;15.072;2023-06-14T14:02:14;6.90;;;3.90;;
73779;SDS011;62093;37.614;15.072;2023-06-14T14:04:41;6.50;;;4.10;;
73779;SDS011;62093;37.614;15.072;2023-06-14T14:07:07;6.90;;;3.60;;
73779;SDS011;62093;37.614;15.072;2023-06-14T14:09:34;7.50;;;4.00;;
73779;SDS011;62093;37.614;15.072;2023-06-14T14:12:01;6.80;;;3.65;;
73779;SDS011;62093;37.614;15.072;2023-06-14T14:14:27;6.88;;;3.85;;
73779;SDS011;62093;37.614;15.072;2023-06-14T14:16:53;5.78;;;3.47;;
73779;SDS011;62093;37.614;15.072;2023-06-14T14:19:20;6.27;;;4.00;;
73779;SDS011;62093;37.614;15.072;2023-06-14T14:21:47;6.82;;;4.10;;
73779;SDS011;62093;37.614;15.072;2023-06-14T14:24:13;6.20;;;3.38;;
73779;SDS011;62093;37.614;15.072;2023-06-14T14:26:39;6.13;;;3.80;;
73779;SDS011;62093;37.614;15.072;2023-06-14T14:29:05;7.10;;;3.70;;
73779;SDS011;62093;37.614;15.072;2023-06-14T14:31:31;6.40;;;3.63;;
73779;SDS011;62093;37.614;15.072;2023-06-14T14:33:57;6.60;;;3.55;;
73779;SDS011;62093;37.614;15.072;2023-06-14T14:36:23;6.35;;;3.78;;
73779;SDS011;62093;37.614;15.072;2023-06-14T14:38:49;7.20;;;3.93;;
73779;SDS011;62093;37.614;15.072;2023-06-14T14:41:17;7.03;;;3.97;;
73779;SDS011;62093;37.614;15.072;2023-06-14T14:43:43;6.60;;;3.58;;
73779;SDS011;62093;37.614;15.072;2023-06-14T14:46:09;6.53;;;3.80;;
73779;SDS011;62093;37.614;15.072;2023-06-14T14:48:35;6.37;;;3.70;;
73779;SDS011;62093;37.614;15.072;2023-06-14T14:51:00;6.30;;;3.63;;
73779;SDS011;62093;37.614;15.072;2023-06-14T14:53:27;6.35;;;4.10;;
73779;SDS011;62093;37.614;15.072;2023-06-14T14:55:53;6.22;;;3.67;;